KFPK

Fitch H Beach Airport

Charlotte, Michigan, USA
METAR KFPK 201635Z AUTO 27012G15KT 10SM -RA SCT035 SCT047 BKN065 10/05 A2968 RMK AO2 T01000048
Observed Flight Rules
Oct-20 @ 16:35 UTC (35 minutes ago) Visual Flight Rules
Wind Visibility Clouds Conditions
270° at 12 knots
 Gusting to 15 knots
10 miles
  • Scattered at 3,500' AGL
  • Scattered at 4,700' AGL
  • Broken at 6,500' AGL
  • Light Rain
Temperatures Readings
Current 10°C / 50°F
Dewpoint 5°C / 41°F
Humidity 71%
Altimeter 29.68" Hg
Pressure 1005 hPa
Elevation 272
METAR KFPK 201635Z AUTO 27012G15KT 10SM -RA SCT035 SCT047 BKN065 10/05 A2968 RMK AO2 T01000048
Observed Flight Rules
Oct-20 @ 16:35 UTC
(35 minutes ago)
VFR
Wind Visibility
270° at 12 knots
 Gusting to 15 knots
10 miles
Clouds
  • Scattered at 3,500' AGL
  • Scattered at 4,700' AGL
  • Broken at 6,500' AGL
Conditions
  • Light Rain
Temperature Dewpoint
10°C / 50°F 5°C / 41°F
Humidity Altimeter Pressure
71% 29.68" Hg 1005 hPa